Newark, Missouri
Current Conditions -  °F | °C
As of 12:55 AM on Friday 31 Oct 2014 (Local Time) from KIRK Reporting Station
Overcast Overcast  
Wind Chill: 50°   Ceiling: 8500
Heat Index: 50°   Visibility: 10mi
Dew Point: 42°   Wind: 14mph
Humidity: 74%   Direction: 350°N
Pressure: 30.16"   Gusts: NA
Location:  39.99°N, 91.97°W
Report Text: KIRK 310555Z AUTO 35012KT 10SM SCT055 OVC085 10/06 A3016 RMK AO2 SLP217 T01000056 10111 20089 401780011 53022
Loading
Personal Weather Stations






























Interactive Weather Map
Tropical Storm Tracking
New forecast layout! Learn more

10-Day Weather Forecast

Advertisements
Track Severe Weather on mobile